sensor_id;sensor_type;location;lat;lon;timestamp;P1;durP1;ratioP1;P2;durP2;ratioP2
46407;SDS011;32110;45.724;21.276;2023-03-30T00:00:26;29.17;;;14.40;;
46407;SDS011;32110;45.724;21.276;2023-03-30T00:02:52;31.08;;;13.90;;
46407;SDS011;32110;45.724;21.276;2023-03-30T00:05:18;29.05;;;14.13;;
46407;SDS011;32110;45.724;21.276;2023-03-30T00:07:43;27.83;;;14.63;;
46407;SDS011;32110;45.724;21.276;2023-03-30T00:10:13;27.38;;;13.85;;
46407;SDS011;32110;45.724;21.276;2023-03-30T00:12:41;26.80;;;13.90;;
46407;SDS011;32110;45.724;21.276;2023-03-30T00:15:08;30.08;;;14.82;;
46407;SDS011;32110;45.724;21.276;2023-03-30T00:17:34;33.63;;;14.00;;
46407;SDS011;32110;45.724;21.276;2023-03-30T00:20:00;25.70;;;13.20;;
46407;SDS011;32110;45.724;21.276;2023-03-30T00:22:35;23.65;;;12.10;;
46407;SDS011;32110;45.724;21.276;2023-03-30T00:25:00;22.85;;;11.05;;
46407;SDS011;32110;45.724;21.276;2023-03-30T00:27:26;24.13;;;12.38;;
46407;SDS011;32110;45.724;21.276;2023-03-30T00:29:51;26.97;;;13.47;;
46407;SDS011;32110;45.724;21.276;2023-03-30T00:32:16;28.10;;;13.97;;
46407;SDS011;32110;45.724;21.276;2023-03-30T00:34:41;30.38;;;13.55;;
46407;SDS011;32110;45.724;21.276;2023-03-30T00:37:07;27.83;;;13.87;;
46407;SDS011;32110;45.724;21.276;2023-03-30T00:39:32;25.70;;;13.50;;
46407;SDS011;32110;45.724;21.276;2023-03-30T00:41:57;28.52;;;12.57;;
46407;SDS011;32110;45.724;21.276;2023-03-30T00:47:07;27.05;;;12.93;;
46407;SDS011;32110;45.724;21.276;2023-03-30T00:49:32;27.75;;;12.90;;
46407;SDS011;32110;45.724;21.276;2023-03-30T00:51:58;24.38;;;12.15;;
46407;SDS011;32110;45.724;21.276;2023-03-30T00:54:24;25.00;;;12.82;;
46407;SDS011;32110;45.724;21.276;2023-03-30T00:56:50;25.85;;;13.05;;
46407;SDS011;32110;45.724;21.276;2023-03-30T00:59:15;24.60;;;12.63;;
46407;SDS011;32110;45.724;21.276;2023-03-30T01:01:40;23.03;;;12.33;;
46407;SDS011;32110;45.724;21.276;2023-03-30T01:04:06;23.65;;;11.90;;
46407;SDS011;32110;45.724;21.276;2023-03-30T01:06:33;22.80;;;11.10;;
46407;SDS011;32110;45.724;21.276;2023-03-30T01:08:58;23.42;;;12.45;;
46407;SDS011;32110;45.724;21.276;2023-03-30T01:11:24;26.60;;;12.48;;
46407;SDS011;32110;45.724;21.276;2023-03-30T01:14:00;24.77;;;12.73;;
46407;SDS011;32110;45.724;21.276;2023-03-30T01:40:47;28.75;;;12.30;;
46407;SDS011;32110;45.724;21.276;2023-03-30T01:43:16;28.63;;;12.32;;
46407;SDS011;32110;45.724;21.276;2023-03-30T01:50:45;20.50;;;10.90;;
46407;SDS011;32110;45.724;21.276;2023-03-30T01:53:19;21.10;;;10.48;;
46407;SDS011;32110;45.724;21.276;2023-03-30T01:55:49;20.63;;;10.80;;
46407;SDS011;32110;45.724;21.276;2023-03-30T02:00:42;20.13;;;9.83;;
46407;SDS011;32110;45.724;21.276;2023-03-30T02:03:12;19.70;;;10.38;;
46407;SDS011;32110;45.724;21.276;2023-03-30T02:05:39;21.65;;;10.50;;
46407;SDS011;32110;45.724;21.276;2023-03-30T02:08:13;18.10;;;10.20;;
46407;SDS011;32110;45.724;21.276;2023-03-30T02:10:39;19.77;;;10.00;;
46407;SDS011;32110;45.724;21.276;2023-03-30T02:13:06;22.42;;;10.43;;
46407;SDS011;32110;45.724;21.276;2023-03-30T02:15:35;18.88;;;9.68;;
46407;SDS011;32110;45.724;21.276;2023-03-30T02:18:01;22.63;;;10.38;;
46407;SDS011;32110;45.724;21.276;2023-03-30T02:20:27;18.15;;;9.68;;
46407;SDS011;32110;45.724;21.276;2023-03-30T02:22:53;19.65;;;10.52;;
46407;SDS011;32110;45.724;21.276;2023-03-30T02:25:18;19.10;;;10.48;;
46407;SDS011;32110;45.724;21.276;2023-03-30T02:27:44;20.63;;;9.82;;
46407;SDS011;32110;45.724;21.276;2023-03-30T02:30:09;18.60;;;9.75;;
46407;SDS011;32110;45.724;21.276;2023-03-30T02:32:39;19.65;;;10.15;;
46407;SDS011;32110;45.724;21.276;2023-03-30T02:35:49;18.38;;;9.57;;
46407;SDS011;32110;45.724;21.276;2023-03-30T02:43:54;18.13;;;9.55;;
46407;SDS011;32110;45.724;21.276;2023-03-30T02:46:35;18.00;;;9.55;;
46407;SDS011;32110;45.724;21.276;2023-03-30T02:51:36;17.73;;;9.10;;
46407;SDS011;32110;45.724;21.276;2023-03-30T02:59:13;21.52;;;9.25;;
46407;SDS011;32110;45.724;21.276;2023-03-30T03:01:42;20.30;;;9.13;;
46407;SDS011;32110;45.724;21.276;2023-03-30T03:04:07;18.05;;;9.15;;
46407;SDS011;32110;45.724;21.276;2023-03-30T03:06:34;17.75;;;9.23;;
46407;SDS011;32110;45.724;21.276;2023-03-30T03:09:02;18.90;;;9.93;;
46407;SDS011;32110;45.724;21.276;2023-03-30T03:11:28;18.80;;;9.32;;
46407;SDS011;32110;45.724;21.276;2023-03-30T03:13:53;18.23;;;9.00;;
46407;SDS011;32110;45.724;21.276;2023-03-30T03:16:19;20.58;;;9.63;;
46407;SDS011;32110;45.724;21.276;2023-03-30T03:18:45;18.27;;;8.82;;
46407;SDS011;32110;45.724;21.276;2023-03-30T03:21:10;19.13;;;9.10;;
46407;SDS011;32110;45.724;21.276;2023-03-30T03:23:38;20.77;;;8.90;;
46407;SDS011;32110;45.724;21.276;2023-03-30T03:26:03;18.02;;;8.93;;
46407;SDS011;32110;45.724;21.276;2023-03-30T03:28:29;15.65;;;8.50;;
46407;SDS011;32110;45.724;21.276;2023-03-30T03:30:55;18.52;;;8.98;;
46407;SDS011;32110;45.724;21.276;2023-03-30T03:33:22;16.33;;;8.82;;
46407;SDS011;32110;45.724;21.276;2023-03-30T03:35:47;20.67;;;9.77;;
46407;SDS011;32110;45.724;21.276;2023-03-30T03:38:17;15.98;;;8.70;;
46407;SDS011;32110;45.724;21.276;2023-03-30T03:40:43;19.33;;;9.23;;
46407;SDS011;32110;45.724;21.276;2023-03-30T03:43:08;22.10;;;8.57;;
46407;SDS011;32110;45.724;21.276;2023-03-30T03:45:33;22.95;;;9.45;;
46407;SDS011;32110;45.724;21.276;2023-03-30T03:47:58;17.57;;;8.93;;
46407;SDS011;32110;45.724;21.276;2023-03-30T03:50:24;18.23;;;9.63;;
46407;SDS011;32110;45.724;21.276;2023-03-30T03:52:49;18.55;;;8.48;;
46407;SDS011;32110;45.724;21.276;2023-03-30T03:55:14;17.97;;;8.97;;
46407;SDS011;32110;45.724;21.276;2023-03-30T03:57:40;15.77;;;8.57;;
46407;SDS011;32110;45.724;21.276;2023-03-30T04:00:05;21.98;;;8.65;;
46407;SDS011;32110;45.724;21.276;2023-03-30T04:02:40;18.83;;;8.95;;
46407;SDS011;32110;45.724;21.276;2023-03-30T04:05:05;19.15;;;9.32;;
46407;SDS011;32110;45.724;21.276;2023-03-30T04:07:30;26.05;;;9.98;;
46407;SDS011;32110;45.724;21.276;2023-03-30T04:09:58;21.45;;;9.88;;
46407;SDS011;32110;45.724;21.276;2023-03-30T04:12:23;19.42;;;10.48;;
46407;SDS011;32110;45.724;21.276;2023-03-30T04:14:48;16.40;;;9.13;;
46407;SDS011;32110;45.724;21.276;2023-03-30T04:17:13;23.02;;;10.18;;
46407;SDS011;32110;45.724;21.276;2023-03-30T04:19:39;20.85;;;9.50;;
46407;SDS011;32110;45.724;21.276;2023-03-30T04:22:05;20.23;;;9.35;;
46407;SDS011;32110;45.724;21.276;2023-03-30T04:24:31;20.42;;;9.60;;
46407;SDS011;32110;45.724;21.276;2023-03-30T04:26:59;20.10;;;9.70;;
46407;SDS011;32110;45.724;21.276;2023-03-30T04:29:24;22.13;;;9.53;;
46407;SDS011;32110;45.724;21.276;2023-03-30T04:31:50;28.48;;;10.35;;
46407;SDS011;32110;45.724;21.276;2023-03-30T04:34:15;25.80;;;9.75;;
46407;SDS011;32110;45.724;21.276;2023-03-30T04:36:46;20.25;;;9.52;;
46407;SDS011;32110;45.724;21.276;2023-03-30T04:39:11;26.17;;;10.55;;
46407;SDS011;32110;45.724;21.276;2023-03-30T04:41:37;20.58;;;9.55;;
46407;SDS011;32110;45.724;21.276;2023-03-30T04:44:06;31.60;;;10.45;;
46407;SDS011;32110;45.724;21.276;2023-03-30T04:46:33;22.08;;;9.77;;
46407;SDS011;32110;45.724;21.276;2023-03-30T04:48:58;19.10;;;8.67;;
46407;SDS011;32110;45.724;21.276;2023-03-30T04:51:23;22.55;;;10.05;;
46407;SDS011;32110;45.724;21.276;2023-03-30T04:53:49;20.75;;;8.77;;
46407;SDS011;32110;45.724;21.276;2023-03-30T04:56:14;20.25;;;9.27;;
46407;SDS011;32110;45.724;21.276;2023-03-30T04:58:40;24.33;;;9.82;;
46407;SDS011;32110;45.724;21.276;2023-03-30T05:01:05;25.63;;;10.05;;
46407;SDS011;32110;45.724;21.276;2023-03-30T05:03:31;27.47;;;10.40;;
46407;SDS011;32110;45.724;21.276;2023-03-30T05:05:56;32.10;;;10.65;;
46407;SDS011;32110;45.724;21.276;2023-03-30T05:08:21;19.60;;;9.32;;
46407;SDS011;32110;45.724;21.276;2023-03-30T05:10:47;24.55;;;10.32;;
46407;SDS011;32110;45.724;21.276;2023-03-30T05:13:12;23.23;;;10.07;;
46407;SDS011;32110;45.724;21.276;2023-03-30T05:15:38;31.55;;;10.88;;
46407;SDS011;32110;45.724;21.276;2023-03-30T05:18:04;23.08;;;10.02;;
46407;SDS011;32110;45.724;21.276;2023-03-30T05:20:29;21.77;;;10.35;;
46407;SDS011;32110;45.724;21.276;2023-03-30T05:22:55;29.40;;;10.18;;
46407;SDS011;32110;45.724;21.276;2023-03-30T05:25:20;22.10;;;9.93;;
46407;SDS011;32110;45.724;21.276;2023-03-30T05:27:45;22.20;;;10.23;;
46407;SDS011;32110;45.724;21.276;2023-03-30T05:30:11;26.53;;;10.37;;
46407;SDS011;32110;45.724;21.276;2023-03-30T05:32:36;18.75;;;9.18;;
46407;SDS011;32110;45.724;21.276;2023-03-30T05:35:02;18.50;;;9.15;;
46407;SDS011;32110;45.724;21.276;2023-03-30T05:37:27;20.98;;;9.65;;
46407;SDS011;32110;45.724;21.276;2023-03-30T05:39:52;23.38;;;9.02;;
46407;SDS011;32110;45.724;21.276;2023-03-30T05:42:17;20.23;;;9.10;;
46407;SDS011;32110;45.724;21.276;2023-03-30T05:44:43;18.67;;;8.47;;
46407;SDS011;32110;45.724;21.276;2023-03-30T05:47:08;19.08;;;8.68;;
46407;SDS011;32110;45.724;21.276;2023-03-30T05:49:33;19.33;;;8.40;;
46407;SDS011;32110;45.724;21.276;2023-03-30T05:51:58;15.73;;;8.17;;
46407;SDS011;32110;45.724;21.276;2023-03-30T05:54:25;20.02;;;8.70;;
46407;SDS011;32110;45.724;21.276;2023-03-30T05:56:51;20.73;;;9.15;;
46407;SDS011;32110;45.724;21.276;2023-03-30T05:59:16;25.17;;;9.20;;
46407;SDS011;32110;45.724;21.276;2023-03-30T06:01:42;17.42;;;8.68;;
46407;SDS011;32110;45.724;21.276;2023-03-30T06:04:07;20.55;;;9.05;;
46407;SDS011;32110;45.724;21.276;2023-03-30T06:06:32;19.47;;;8.23;;
46407;SDS011;32110;45.724;21.276;2023-03-30T06:08:58;18.83;;;8.77;;
46407;SDS011;32110;45.724;21.276;2023-03-30T06:11:23;19.45;;;9.40;;
46407;SDS011;32110;45.724;21.276;2023-03-30T06:13:48;23.73;;;8.85;;
46407;SDS011;32110;45.724;21.276;2023-03-30T06:16:14;18.73;;;8.80;;
46407;SDS011;32110;45.724;21.276;2023-03-30T06:18:39;24.00;;;8.73;;
46407;SDS011;32110;45.724;21.276;2023-03-30T06:21:05;21.55;;;9.15;;
46407;SDS011;32110;45.724;21.276;2023-03-30T06:23:34;19.73;;;8.45;;
46407;SDS011;32110;45.724;21.276;2023-03-30T06:26:01;23.13;;;8.52;;
46407;SDS011;32110;45.724;21.276;2023-03-30T06:28:26;15.90;;;8.20;;
46407;SDS011;32110;45.724;21.276;2023-03-30T06:30:51;17.05;;;7.50;;
46407;SDS011;32110;45.724;21.276;2023-03-30T06:33:17;18.90;;;8.15;;
46407;SDS011;32110;45.724;21.276;2023-03-30T06:35:47;15.57;;;7.57;;
46407;SDS011;32110;45.724;21.276;2023-03-30T06:40:37;16.92;;;6.10;;
46407;SDS011;32110;45.724;21.276;2023-03-30T06:43:03;17.83;;;6.82;;
46407;SDS011;32110;45.724;21.276;2023-03-30T06:45:28;11.43;;;6.30;;
46407;SDS011;32110;45.724;21.276;2023-03-30T06:47:53;14.70;;;7.10;;
46407;SDS011;32110;45.724;21.276;2023-03-30T06:50:20;14.48;;;6.65;;
46407;SDS011;32110;45.724;21.276;2023-03-30T06:52:45;12.90;;;6.65;;
46407;SDS011;32110;45.724;21.276;2023-03-30T06:55:11;12.82;;;6.68;;
46407;SDS011;32110;45.724;21.276;2023-03-30T06:57:36;13.50;;;6.60;;
46407;SDS011;32110;45.724;21.276;2023-03-30T07:00:01;16.17;;;7.63;;
46407;SDS011;32110;45.724;21.276;2023-03-30T07:04:57;16.63;;;7.47;;
46407;SDS011;32110;45.724;21.276;2023-03-30T07:07:22;18.53;;;8.47;;
46407;SDS011;32110;45.724;21.276;2023-03-30T07:09:47;15.27;;;7.25;;
46407;SDS011;32110;45.724;21.276;2023-03-30T07:12:13;13.10;;;7.22;;
46407;SDS011;32110;45.724;21.276;2023-03-30T07:14:38;15.10;;;6.73;;
46407;SDS011;32110;45.724;21.276;2023-03-30T07:17:03;13.93;;;7.20;;
46407;SDS011;32110;45.724;21.276;2023-03-30T07:19:29;14.47;;;7.20;;
46407;SDS011;32110;45.724;21.276;2023-03-30T07:21:54;15.10;;;7.05;;
46407;SDS011;32110;45.724;21.276;2023-03-30T07:24:20;13.82;;;6.93;;
46407;SDS011;32110;45.724;21.276;2023-03-30T07:26:45;13.90;;;6.80;;
46407;SDS011;32110;45.724;21.276;2023-03-30T07:29:11;12.03;;;6.87;;
46407;SDS011;32110;45.724;21.276;2023-03-30T07:31:36;13.83;;;5.90;;
46407;SDS011;32110;45.724;21.276;2023-03-30T07:34:01;11.88;;;5.85;;
46407;SDS011;32110;45.724;21.276;2023-03-30T07:36:28;13.57;;;5.68;;
46407;SDS011;32110;45.724;21.276;2023-03-30T07:38:53;12.40;;;5.30;;
46407;SDS011;32110;45.724;21.276;2023-03-30T07:41:18;7.18;;;4.50;;
46407;SDS011;32110;45.724;21.276;2023-03-30T07:43:44;11.00;;;4.93;;
46407;SDS011;32110;45.724;21.276;2023-03-30T07:46:09;7.45;;;4.35;;
46407;SDS011;32110;45.724;21.276;2023-03-30T07:48:38;10.73;;;3.78;;
46407;SDS011;32110;45.724;21.276;2023-03-30T07:51:13;6.78;;;3.40;;
46407;SDS011;32110;45.724;21.276;2023-03-30T07:53:38;5.97;;;3.90;;
46407;SDS011;32110;45.724;21.276;2023-03-30T07:56:04;9.73;;;3.85;;
46407;SDS011;32110;45.724;21.276;2023-03-30T07:58:30;8.50;;;4.05;;
46407;SDS011;32110;45.724;21.276;2023-03-30T08:00:56;5.45;;;3.35;;
46407;SDS011;32110;45.724;21.276;2023-03-30T08:03:21;5.70;;;2.90;;
46407;SDS011;32110;45.724;21.276;2023-03-30T08:05:56;8.20;;;3.58;;
46407;SDS011;32110;45.724;21.276;2023-03-30T08:08:23;7.45;;;3.22;;
46407;SDS011;32110;45.724;21.276;2023-03-30T08:10:49;6.40;;;3.30;;
46407;SDS011;32110;45.724;21.276;2023-03-30T08:13:14;9.35;;;3.35;;
46407;SDS011;32110;45.724;21.276;2023-03-30T08:15:40;9.40;;;3.40;;
46407;SDS011;32110;45.724;21.276;2023-03-30T08:18:05;8.80;;;3.38;;
46407;SDS011;32110;45.724;21.276;2023-03-30T08:20:35;6.32;;;3.00;;
46407;SDS011;32110;45.724;21.276;2023-03-30T08:23:01;9.85;;;3.78;;
46407;SDS011;32110;45.724;21.276;2023-03-30T08:25:26;8.20;;;3.22;;
46407;SDS011;32110;45.724;21.276;2023-03-30T08:27:52;8.40;;;3.25;;
46407;SDS011;32110;45.724;21.276;2023-03-30T08:30:17;7.03;;;2.90;;
46407;SDS011;32110;45.724;21.276;2023-03-30T08:32:42;6.67;;;2.77;;
46407;SDS011;32110;45.724;21.276;2023-03-30T08:35:08;8.87;;;2.97;;
46407;SDS011;32110;45.724;21.276;2023-03-30T08:37:34;6.03;;;3.15;;
46407;SDS011;32110;45.724;21.276;2023-03-30T08:39:59;8.43;;;3.10;;
46407;SDS011;32110;45.724;21.276;2023-03-30T08:44:53;8.57;;;2.80;;
46407;SDS011;32110;45.724;21.276;2023-03-30T08:47:29;6.65;;;2.67;;
46407;SDS011;32110;45.724;21.276;2023-03-30T08:50:06;6.32;;;3.05;;
46407;SDS011;32110;45.724;21.276;2023-03-30T08:52:32;5.32;;;2.90;;
46407;SDS011;32110;45.724;21.276;2023-03-30T08:54:58;4.82;;;2.55;;
46407;SDS011;32110;45.724;21.276;2023-03-30T09:02:33;6.10;;;2.63;;
46407;SDS011;32110;45.724;21.276;2023-03-30T09:07:27;6.30;;;3.20;;
46407;SDS011;32110;45.724;21.276;2023-03-30T09:09:53;11.40;;;2.85;;
46407;SDS011;32110;45.724;21.276;2023-03-30T09:14:57;5.73;;;2.37;;
46407;SDS011;32110;45.724;21.276;2023-03-30T09:17:28;6.97;;;2.40;;
46407;SDS011;32110;45.724;21.276;2023-03-30T09:19:57;5.95;;;2.55;;
46407;SDS011;32110;45.724;21.276;2023-03-30T09:22:32;8.60;;;2.73;;
46407;SDS011;32110;45.724;21.276;2023-03-30T09:24:58;4.05;;;2.25;;
46407;SDS011;32110;45.724;21.276;2023-03-30T09:29:52;3.25;;;1.88;;
46407;SDS011;32110;45.724;21.276;2023-03-30T09:32:25;4.40;;;2.45;;
46407;SDS011;32110;45.724;21.276;2023-03-30T09:35:02;4.22;;;2.05;;
46407;SDS011;32110;45.724;21.276;2023-03-30T09:37:28;3.50;;;2.03;;
46407;SDS011;32110;45.724;21.276;2023-03-30T09:39:54;7.40;;;2.47;;
46407;SDS011;32110;45.724;21.276;2023-03-30T09:47:36;4.15;;;2.17;;
46407;SDS011;32110;45.724;21.276;2023-03-30T09:50:18;5.30;;;2.58;;
46407;SDS011;32110;45.724;21.276;2023-03-30T09:53:01;3.90;;;2.28;;
46407;SDS011;32110;45.724;21.276;2023-03-30T09:57:52;4.72;;;2.20;;
46407;SDS011;32110;45.724;21.276;2023-03-30T10:00:28;6.60;;;2.60;;
46407;SDS011;32110;45.724;21.276;2023-03-30T10:03:05;5.18;;;2.15;;
46407;SDS011;32110;45.724;21.276;2023-03-30T10:05:31;5.22;;;2.10;;
46407;SDS011;32110;45.724;21.276;2023-03-30T10:07:58;8.18;;;2.10;;
46407;SDS011;32110;45.724;21.276;2023-03-30T10:12:49;5.17;;;2.20;;
46407;SDS011;32110;45.724;21.276;2023-03-30T10:15:18;3.90;;;2.38;;
46407;SDS011;32110;45.724;21.276;2023-03-30T10:17:45;3.63;;;2.22;;
46407;SDS011;32110;45.724;21.276;2023-03-30T10:20:15;2.65;;;1.70;;
46407;SDS011;32110;45.724;21.276;2023-03-30T10:22:52;3.60;;;1.92;;
46407;SDS011;32110;45.724;21.276;2023-03-30T10:25:19;3.53;;;1.70;;
46407;SDS011;32110;45.724;21.276;2023-03-30T10:27:45;4.10;;;1.80;;
46407;SDS011;32110;45.724;21.276;2023-03-30T10:30:17;4.22;;;1.80;;
46407;SDS011;32110;45.724;21.276;2023-03-30T10:32:44;2.88;;;1.67;;
46407;SDS011;32110;45.724;21.276;2023-03-30T10:35:13;6.00;;;1.52;;
46407;SDS011;32110;45.724;21.276;2023-03-30T10:37:42;4.13;;;1.77;;
46407;SDS011;32110;45.724;21.276;2023-03-30T10:40:15;3.80;;;1.90;;
46407;SDS011;32110;45.724;21.276;2023-03-30T10:42:43;3.15;;;1.65;;
46407;SDS011;32110;45.724;21.276;2023-03-30T10:45:21;4.55;;;1.90;;
46407;SDS011;32110;45.724;21.276;2023-03-30T11:01:54;7.95;;;1.70;;
46407;SDS011;32110;45.724;21.276;2023-03-30T11:04:21;3.50;;;1.70;;
46407;SDS011;32110;45.724;21.276;2023-03-30T11:07:00;6.53;;;1.50;;
46407;SDS011;32110;45.724;21.276;2023-03-30T11:09:29;7.10;;;1.70;;
46407;SDS011;32110;45.724;21.276;2023-03-30T11:12:00;2.65;;;1.50;;
46407;SDS011;32110;45.724;21.276;2023-03-30T11:14:38;5.68;;;1.80;;
46407;SDS011;32110;45.724;21.276;2023-03-30T11:23:07;6.05;;;1.40;;
46407;SDS011;32110;45.724;21.276;2023-03-30T11:28:20;8.60;;;1.75;;
46407;SDS011;32110;45.724;21.276;2023-03-30T11:31:02;6.35;;;1.60;;
46407;SDS011;32110;45.724;21.276;2023-03-30T11:33:41;6.72;;;1.98;;
46407;SDS011;32110;45.724;21.276;2023-03-30T11:36:27;4.47;;;1.80;;
46407;SDS011;32110;45.724;21.276;2023-03-30T11:39:01;2.92;;;1.50;;
46407;SDS011;32110;45.724;21.276;2023-03-30T11:41:35;4.47;;;1.63;;
46407;SDS011;32110;45.724;21.276;2023-03-30T11:44:07;6.05;;;1.98;;
46407;SDS011;32110;45.724;21.276;2023-03-30T11:46:37;7.22;;;2.03;;
46407;SDS011;32110;45.724;21.276;2023-03-30T12:02:48;6.28;;;1.90;;
46407;SDS011;32110;45.724;21.276;2023-03-30T12:05:37;3.88;;;1.42;;
46407;SDS011;32110;45.724;21.276;2023-03-30T12:10:59;6.07;;;2.00;;
46407;SDS011;32110;45.724;21.276;2023-03-30T12:13:31;4.45;;;1.63;;
46407;SDS011;32110;45.724;21.276;2023-03-30T12:15:59;5.72;;;1.60;;
46407;SDS011;32110;45.724;21.276;2023-03-30T12:26:34;6.90;;;2.08;;
46407;SDS011;32110;45.724;21.276;2023-03-30T12:31:48;3.95;;;1.95;;
46407;SDS011;32110;45.724;21.276;2023-03-30T12:34:20;3.95;;;2.17;;
46407;SDS011;32110;45.724;21.276;2023-03-30T12:36:55;3.95;;;2.13;;
46407;SDS011;32110;45.724;21.276;2023-03-30T12:39:30;2.70;;;1.60;;
46407;SDS011;32110;45.724;21.276;2023-03-30T12:50:12;4.03;;;1.90;;
46407;SDS011;32110;45.724;21.276;2023-03-30T12:52:58;4.00;;;1.80;;
46407;SDS011;32110;45.724;21.276;2023-03-30T13:04:11;4.65;;;1.80;;
46407;SDS011;32110;45.724;21.276;2023-03-30T13:06:43;5.93;;;2.35;;
46407;SDS011;32110;45.724;21.276;2023-03-30T13:29:40;6.85;;;2.10;;
46407;SDS011;32110;45.724;21.276;2023-03-30T13:37:25;3.75;;;2.03;;
46407;SDS011;32110;45.724;21.276;2023-03-30T13:42:21;4.63;;;2.00;;
46407;SDS011;32110;45.724;21.276;2023-03-30T13:50:14;5.15;;;2.65;;
46407;SDS011;32110;45.724;21.276;2023-03-30T13:52:43;7.45;;;2.55;;
46407;SDS011;32110;45.724;21.276;2023-03-30T13:55:18;7.82;;;2.58;;
46407;SDS011;32110;45.724;21.276;2023-03-30T13:57:46;5.47;;;2.30;;
46407;SDS011;32110;45.724;21.276;2023-03-30T14:02:49;4.55;;;2.42;;
46407;SDS011;32110;45.724;21.276;2023-03-30T14:05:18;4.13;;;2.42;;
46407;SDS011;32110;45.724;21.276;2023-03-30T14:07:48;6.53;;;2.30;;
46407;SDS011;32110;45.724;21.276;2023-03-30T14:12:39;5.88;;;2.38;;
46407;SDS011;32110;45.724;21.276;2023-03-30T14:15:14;5.60;;;2.40;;
46407;SDS011;32110;45.724;21.276;2023-03-30T14:17:46;4.07;;;2.33;;
46407;SDS011;32110;45.724;21.276;2023-03-30T14:20:19;7.50;;;2.40;;
46407;SDS011;32110;45.724;21.276;2023-03-30T14:22:48;5.78;;;2.75;;
46407;SDS011;32110;45.724;21.276;2023-03-30T14:27:50;5.20;;;2.65;;
46407;SDS011;32110;45.724;21.276;2023-03-30T14:30:22;8.88;;;3.10;;
46407;SDS011;32110;45.724;21.276;2023-03-30T14:33:07;5.60;;;2.40;;
46407;SDS011;32110;45.724;21.276;2023-03-30T14:35:39;6.50;;;2.75;;
46407;SDS011;32110;45.724;21.276;2023-03-30T14:38:30;4.75;;;2.50;;
46407;SDS011;32110;45.724;21.276;2023-03-30T14:41:13;7.63;;;2.80;;
46407;SDS011;32110;45.724;21.276;2023-03-30T14:43:44;5.90;;;2.80;;
46407;SDS011;32110;45.724;21.276;2023-03-30T14:46:15;10.75;;;3.25;;
46407;SDS011;32110;45.724;21.276;2023-03-30T14:48:42;7.53;;;2.70;;
46407;SDS011;32110;45.724;21.276;2023-03-30T14:51:23;6.95;;;2.72;;
46407;SDS011;32110;45.724;21.276;2023-03-30T14:53:51;8.85;;;2.85;;
46407;SDS011;32110;45.724;21.276;2023-03-30T14:56:18;6.10;;;2.80;;
46407;SDS011;32110;45.724;21.276;2023-03-30T14:58:45;10.25;;;2.90;;
46407;SDS011;32110;45.724;21.276;2023-03-30T15:01:14;3.53;;;2.53;;
46407;SDS011;32110;45.724;21.276;2023-03-30T15:03:42;5.82;;;2.60;;
46407;SDS011;32110;45.724;21.276;2023-03-30T15:06:10;5.53;;;2.92;;
46407;SDS011;32110;45.724;21.276;2023-03-30T15:08:38;5.53;;;3.03;;
46407;SDS011;32110;45.724;21.276;2023-03-30T15:11:08;7.03;;;3.17;;
46407;SDS011;32110;45.724;21.276;2023-03-30T15:13:55;7.72;;;3.25;;
46407;SDS011;32110;45.724;21.276;2023-03-30T15:16:27;7.15;;;3.25;;
46407;SDS011;32110;45.724;21.276;2023-03-30T15:19:05;7.93;;;3.58;;
46407;SDS011;32110;45.724;21.276;2023-03-30T15:21:58;9.05;;;3.25;;
46407;SDS011;32110;45.724;21.276;2023-03-30T15:24:27;7.90;;;3.28;;
46407;SDS011;32110;45.724;21.276;2023-03-30T15:26:56;7.07;;;3.00;;
46407;SDS011;32110;45.724;21.276;2023-03-30T15:29:23;9.48;;;3.83;;
46407;SDS011;32110;45.724;21.276;2023-03-30T15:34:35;7.75;;;3.35;;
46407;SDS011;32110;45.724;21.276;2023-03-30T15:37:01;7.47;;;3.17;;
46407;SDS011;32110;45.724;21.276;2023-03-30T15:39:28;7.28;;;3.38;;
46407;SDS011;32110;45.724;21.276;2023-03-30T15:42:02;4.00;;;2.70;;
46407;SDS011;32110;45.724;21.276;2023-03-30T15:44:36;6.80;;;3.38;;
46407;SDS011;32110;45.724;21.276;2023-03-30T15:47:04;5.63;;;3.40;;
46407;SDS011;32110;45.724;21.276;2023-03-30T15:49:41;7.00;;;3.47;;
46407;SDS011;32110;45.724;21.276;2023-03-30T15:52:15;6.18;;;2.72;;
46407;SDS011;32110;45.724;21.276;2023-03-30T15:54:47;4.47;;;2.90;;
46407;SDS011;32110;45.724;21.276;2023-03-30T16:05:01;7.35;;;3.20;;
46407;SDS011;32110;45.724;21.276;2023-03-30T16:07:29;8.82;;;3.17;;
46407;SDS011;32110;45.724;21.276;2023-03-30T16:09:55;6.50;;;3.22;;
46407;SDS011;32110;45.724;21.276;2023-03-30T16:12:21;13.32;;;3.58;;
46407;SDS011;32110;45.724;21.276;2023-03-30T16:14:50;5.35;;;3.15;;
46407;SDS011;32110;45.724;21.276;2023-03-30T16:17:15;7.80;;;3.25;;
46407;SDS011;32110;45.724;21.276;2023-03-30T16:19:41;7.68;;;3.90;;
46407;SDS011;32110;45.724;21.276;2023-03-30T16:22:08;10.73;;;4.38;;
46407;SDS011;32110;45.724;21.276;2023-03-30T16:24:34;12.38;;;4.30;;
46407;SDS011;32110;45.724;21.276;2023-03-30T16:27:00;8.13;;;4.13;;
46407;SDS011;32110;45.724;21.276;2023-03-30T16:29:25;12.15;;;4.00;;
46407;SDS011;32110;45.724;21.276;2023-03-30T16:31:51;10.07;;;4.38;;
46407;SDS011;32110;45.724;21.276;2023-03-30T16:34:17;9.80;;;4.40;;
46407;SDS011;32110;45.724;21.276;2023-03-30T16:36:43;17.23;;;5.75;;
46407;SDS011;32110;45.724;21.276;2023-03-30T16:39:19;9.57;;;6.47;;
46407;SDS011;32110;45.724;21.276;2023-03-30T16:41:50;11.77;;;6.97;;
46407;SDS011;32110;45.724;21.276;2023-03-30T16:44:17;9.48;;;5.00;;
46407;SDS011;32110;45.724;21.276;2023-03-30T16:46:43;12.93;;;4.88;;
46407;SDS011;32110;45.724;21.276;2023-03-30T16:49:11;11.88;;;5.10;;
46407;SDS011;32110;45.724;21.276;2023-03-30T16:51:41;14.23;;;5.88;;
46407;SDS011;32110;45.724;21.276;2023-03-30T16:54:07;14.57;;;5.20;;
46407;SDS011;32110;45.724;21.276;2023-03-30T16:56:32;16.17;;;5.43;;
46407;SDS011;32110;45.724;21.276;2023-03-30T16:58:58;13.07;;;5.45;;
46407;SDS011;32110;45.724;21.276;2023-03-30T17:01:24;16.92;;;5.40;;
46407;SDS011;32110;45.724;21.276;2023-03-30T17:03:51;16.70;;;5.40;;
46407;SDS011;32110;45.724;21.276;2023-03-30T17:06:17;13.10;;;5.53;;
46407;SDS011;32110;45.724;21.276;2023-03-30T17:08:42;13.02;;;6.45;;
46407;SDS011;32110;45.724;21.276;2023-03-30T17:11:08;17.38;;;7.72;;
46407;SDS011;32110;45.724;21.276;2023-03-30T17:13:34;25.08;;;11.20;;
46407;SDS011;32110;45.724;21.276;2023-03-30T17:16:00;35.05;;;14.88;;
46407;SDS011;32110;45.724;21.276;2023-03-30T17:18:26;40.40;;;14.95;;
46407;SDS011;32110;45.724;21.276;2023-03-30T17:20:53;20.27;;;9.25;;
46407;SDS011;32110;45.724;21.276;2023-03-30T17:23:20;14.85;;;6.60;;
46407;SDS011;32110;45.724;21.276;2023-03-30T17:25:47;10.40;;;5.85;;
46407;SDS011;32110;45.724;21.276;2023-03-30T17:30:47;16.73;;;5.55;;
46407;SDS011;32110;45.724;21.276;2023-03-30T17:33:13;15.52;;;5.40;;
46407;SDS011;32110;45.724;21.276;2023-03-30T17:35:39;12.45;;;5.10;;
46407;SDS011;32110;45.724;21.276;2023-03-30T17:38:06;11.38;;;4.78;;
46407;SDS011;32110;45.724;21.276;2023-03-30T17:40:33;8.65;;;4.88;;
46407;SDS011;32110;45.724;21.276;2023-03-30T17:43:03;8.10;;;4.68;;
46407;SDS011;32110;45.724;21.276;2023-03-30T17:45:29;8.68;;;5.25;;
46407;SDS011;32110;45.724;21.276;2023-03-30T17:47:57;9.25;;;5.22;;
46407;SDS011;32110;45.724;21.276;2023-03-30T17:50:32;12.00;;;5.80;;